createdAt,value
2022-10-29T00:02:24.525Z,63.27
2022-10-29T00:04:27.206Z,62.75
2022-10-29T00:06:29.455Z,63.08
2022-10-29T00:08:33.970Z,63.17
2022-10-29T00:10:36.368Z,62.92
2022-10-29T00:12:38.516Z,62.88
2022-10-29T00:14:40.720Z,63.18
2022-10-29T00:16:42.771Z,62.88
2022-10-29T00:18:45.594Z,62.71
2022-10-29T00:20:48.627Z,62.43
2022-10-29T00:22:54.433Z,62.41
2022-10-29T00:24:57.187Z,62.18
2022-10-29T00:26:59.958Z,62.08
2022-10-29T00:29:02.155Z,62.61
2022-10-29T00:31:11.486Z,62.73
2022-10-29T00:33:13.566Z,62.25
2022-10-29T00:35:16.555Z,62.02
2022-10-29T00:37:18.698Z,61.83
2022-10-29T00:39:20.990Z,62.05
2022-10-29T00:41:27.393Z,61.85
2022-10-29T00:43:29.784Z,61.18
2022-10-29T00:45:32.203Z,61.02
2022-10-29T00:47:37.690Z,61.45
2022-10-29T00:49:43.655Z,60.79
2022-10-29T00:51:47.940Z,60.71
2022-10-29T00:53:58.798Z,60.78
2022-10-29T00:56:01.391Z,60.48
2022-10-29T00:58:04.720Z,60.29
2022-10-29T01:00:08.378Z,60.66
2022-10-29T01:02:11.353Z,60.40
2022-10-29T01:04:14.420Z,60.25
2022-10-29T01:06:25.961Z,60.50
2022-10-29T01:08:28.277Z,60.72
2022-10-29T01:10:59.810Z,61.95
2022-10-29T01:13:21.563Z,60.65
2022-10-29T01:15:34.084Z,60.61
2022-10-29T01:18:05.151Z,60.46
2022-10-29T01:20:29.779Z,60.48
2022-10-29T01:22:32.005Z,60.78
2022-10-29T01:25:01.673Z,60.75
2022-10-29T01:27:41.164Z,60.45
2022-10-29T01:30:11.033Z,60.78
2022-10-29T01:32:23.522Z,60.67
2022-10-29T01:34:51.731Z,61.59
2022-10-29T01:37:00.044Z,60.65
2022-10-29T01:39:10.953Z,60.82
2022-10-29T01:41:17.479Z,60.71
2022-10-29T01:43:32.093Z,60.73
2022-10-29T01:45:46.467Z,60.60
2022-10-29T01:47:59.564Z,60.42
2022-10-29T01:50:05.487Z,60.31
2022-10-29T01:52:11.956Z,59.99
2022-10-29T01:54:14.383Z,60.29
2022-10-29T01:56:17.324Z,60.31
2022-10-29T01:58:19.659Z,60.31
2022-10-29T02:00:22.365Z,60.30
2022-10-29T02:02:55.125Z,60.18
2022-10-29T02:05:02.367Z,59.88
2022-10-29T02:07:13.760Z,60.83
2022-10-29T02:09:24.887Z,60.49
2022-10-29T02:11:41.012Z,60.68
2022-10-29T02:14:03.098Z,60.34
2022-10-29T02:16:07.643Z,60.47
2022-10-29T02:18:10.125Z,60.73
2022-10-29T02:20:13.903Z,60.52
2022-10-29T02:22:16.195Z,60.45
2022-10-29T02:24:18.712Z,60.92
2022-10-29T02:26:22.008Z,60.64
2022-10-29T02:28:26.601Z,60.80
2022-10-29T02:30:28.823Z,60.50
2022-10-29T02:32:32.906Z,60.36
2022-10-29T02:34:35.431Z,61.09
2022-10-29T02:36:37.797Z,60.76
2022-10-29T02:38:39.911Z,61.10
2022-10-29T02:40:42.319Z,61.22
2022-10-29T02:42:44.515Z,60.89
2022-10-29T02:44:46.613Z,61.33
2022-10-29T02:46:48.830Z,61.43
2022-10-29T02:48:51.569Z,61.37
2022-10-29T02:50:53.717Z,61.27
2022-10-29T02:52:57.657Z,61.14
2022-10-29T02:55:02.990Z,61.32
2022-10-29T02:57:05.538Z,61.11
2022-10-29T02:59:11.667Z,61.08
2022-10-29T03:01:16.494Z,61.87
2022-10-29T03:03:19.132Z,61.59
2022-10-29T03:05:21.226Z,61.72
2022-10-29T03:07:23.703Z,61.81
2022-10-29T03:09:25.833Z,61.66
2022-10-29T03:11:28.400Z,61.57
2022-10-29T03:13:30.620Z,61.75
2022-10-29T03:15:32.634Z,61.47
2022-10-29T03:17:34.665Z,61.13
2022-10-29T03:19:36.896Z,61.32
2022-10-29T03:21:39.046Z,61.60
2022-10-29T03:23:41.190Z,61.44
2022-10-29T03:25:43.551Z,61.46
2022-10-29T03:27:46.377Z,61.41
2022-10-29T03:29:51.848Z,61.74
2022-10-29T03:31:54.244Z,61.98
2022-10-29T03:33:56.434Z,62.86
2022-10-29T03:36:03.692Z,63.32
2022-10-29T03:38:05.973Z,62.90
2022-10-29T03:40:09.210Z,63.04
2022-10-29T03:42:11.487Z,63.17
2022-10-29T03:44:13.521Z,63.20
2022-10-29T03:46:15.484Z,62.96
2022-10-29T03:48:18.335Z,63.16
2022-10-29T03:50:20.516Z,63.53
2022-10-29T03:52:22.790Z,63.41
2022-10-29T03:54:26.470Z,63.43
2022-10-29T03:56:28.910Z,63.09
2022-10-29T03:58:31.176Z,63.35
2022-10-29T04:00:33.270Z,63.45
2022-10-29T04:02:35.602Z,63.74
2022-10-29T04:04:38.342Z,63.93
2022-10-29T04:06:40.601Z,64.42
2022-10-29T04:08:43.091Z,64.06
2022-10-29T04:10:50.019Z,63.67
2022-10-29T04:12:52.258Z,63.50
2022-10-29T04:14:58.023Z,63.80
2022-10-29T04:17:02.688Z,63.48
2022-10-29T04:19:07.118Z,63.35
2022-10-29T04:28:43.023Z,62.67
2022-10-29T04:30:47.554Z,62.45
2022-10-29T04:32:49.817Z,62.84
2022-10-29T04:34:51.969Z,62.46
2022-10-29T04:36:54.083Z,62.48
2022-10-29T04:38:56.284Z,62.33
2022-10-29T04:40:59.958Z,61.93
2022-10-29T04:43:02.306Z,61.86
2022-10-29T04:45:05.656Z,61.55
2022-10-29T04:47:07.550Z,61.10
2022-10-29T04:49:09.826Z,60.79
2022-10-29T04:51:24.014Z,60.44
2022-10-29T04:53:26.136Z,60.60
2022-10-29T04:55:36.161Z,60.47
2022-10-29T04:57:38.583Z,59.96
2022-10-29T04:59:40.975Z,60.06
2022-10-29T05:01:42.967Z,59.63
2022-10-29T05:03:52.164Z,59.30
2022-10-29T05:05:55.586Z,59.29
2022-10-29T05:08:01.402Z,59.31
2022-10-29T05:10:03.636Z,59.36
2022-10-29T05:12:07.164Z,59.38
2022-10-29T05:14:09.368Z,59.38
2022-10-29T05:16:11.626Z,59.27
2022-10-29T05:18:13.703Z,58.88
2022-10-29T05:20:15.979Z,58.89
2022-10-29T05:22:18.968Z,59.43
2022-10-29T05:24:21.154Z,59.25
2022-10-29T05:26:23.404Z,59.32
2022-10-29T05:28:25.487Z,59.15
2022-10-29T05:30:27.624Z,58.87
2022-10-29T05:32:30.127Z,59.00
2022-10-29T05:34:32.232Z,59.00
2022-10-29T05:36:34.390Z,59.65
2022-10-29T05:38:36.854Z,60.10
2022-10-29T05:40:39.754Z,60.30
2022-10-29T05:42:47.145Z,60.74
2022-10-29T05:44:49.809Z,60.90
2022-10-29T05:46:52.149Z,60.63
2022-10-29T05:48:54.427Z,60.73
2022-10-29T05:50:57.985Z,60.67
2022-10-29T05:53:02.235Z,61.15
2022-10-29T05:55:05.030Z,61.23
2022-10-29T05:57:07.169Z,61.74
2022-10-29T05:59:09.529Z,61.83
2022-10-29T06:01:12.099Z,61.51
2022-10-29T06:03:15.424Z,62.32
2022-10-29T06:05:17.331Z,62.31
2022-10-29T06:07:19.732Z,62.48
2022-10-29T06:09:21.636Z,62.52
2022-10-29T06:11:23.681Z,62.16
2022-10-29T06:13:25.599Z,62.67
2022-10-29T06:15:27.565Z,62.74
2022-10-29T06:17:29.855Z,62.23
2022-10-29T06:19:32.121Z,62.21
2022-10-29T06:21:35.780Z,62.08
2022-10-29T06:23:37.779Z,62.10
2022-10-29T06:25:40.047Z,62.82
2022-10-29T06:27:41.811Z,62.94
2022-10-29T06:29:43.873Z,62.87
2022-10-29T06:31:45.864Z,62.72
2022-10-29T06:33:47.890Z,63.26
2022-10-29T06:35:50.126Z,62.91
2022-10-29T06:37:54.717Z,62.74
2022-10-29T06:39:57.278Z,63.02
2022-10-29T06:41:59.595Z,63.10
2022-10-29T06:44:05.260Z,62.89
2022-10-29T06:46:07.475Z,62.72
2022-10-29T06:48:09.702Z,62.50
2022-10-29T06:50:13.736Z,62.73
2022-10-29T06:52:15.710Z,62.59
2022-10-29T06:54:18.011Z,62.74
2022-10-29T06:56:21.190Z,62.70
2022-10-29T06:58:23.413Z,63.32
2022-10-29T07:00:25.419Z,63.57
2022-10-29T07:02:27.882Z,63.78
2022-10-29T07:04:30.193Z,64.00
2022-10-29T07:06:34.644Z,63.89
2022-10-29T07:08:36.744Z,64.21
2022-10-29T07:10:39.868Z,64.27
2022-10-29T07:12:42.731Z,64.19
2022-10-29T07:14:44.892Z,64.22
2022-10-29T07:16:47.914Z,64.62
2022-10-29T07:19:53.632Z,66.06
2022-10-29T07:21:55.839Z,64.21
2022-10-29T07:23:58.116Z,63.97
2022-10-29T07:26:00.487Z,64.42
2022-10-29T07:28:08.187Z,64.31
2022-10-29T07:30:10.593Z,64.09
2022-10-29T07:32:12.471Z,64.00
2022-10-29T07:34:14.368Z,64.02
2022-10-29T07:36:16.492Z,64.07
2022-10-29T07:38:18.483Z,64.27
2022-10-29T07:40:20.882Z,64.05
2022-10-29T07:42:23.035Z,64.12
2022-10-29T07:44:25.083Z,63.71
2022-10-29T07:46:27.021Z,63.61
2022-10-29T07:48:29.030Z,63.90
2022-10-29T07:50:32.061Z,63.98
2022-10-29T07:52:34.022Z,64.04
2022-10-29T07:54:36.255Z,64.33
2022-10-29T07:56:40.212Z,64.35
2022-10-29T07:58:44.261Z,64.25
2022-10-29T08:00:46.664Z,64.24
2022-10-29T08:02:55.093Z,65.42
2022-10-29T08:04:57.129Z,65.19
2022-10-29T08:06:58.930Z,65.04
2022-10-29T08:09:01.044Z,65.11
2022-10-29T08:11:05.211Z,65.60
2022-10-29T08:13:07.416Z,65.58
2022-10-29T08:15:09.673Z,65.41
2022-10-29T08:17:13.814Z,65.51
2022-10-29T08:19:15.789Z,65.05
2022-10-29T08:21:18.296Z,65.33
2022-10-29T08:23:20.740Z,65.58
2022-10-29T08:25:22.797Z,65.82
2022-10-29T08:27:24.730Z,65.65
2022-10-29T08:29:27.246Z,65.68
2022-10-29T08:31:29.816Z,65.39
2022-10-29T08:33:31.850Z,65.35
2022-10-29T08:35:34.469Z,65.27
2022-10-29T08:37:36.414Z,65.63
2022-10-29T08:39:38.397Z,65.41
2022-10-29T08:41:56.443Z,65.62
2022-10-29T08:44:15.627Z,65.72
2022-10-29T08:46:24.878Z,65.47
2022-10-29T08:49:02.419Z,65.54
2022-10-29T08:51:15.093Z,65.99
2022-10-29T08:53:25.888Z,65.58
2022-10-29T08:55:36.748Z,65.85
2022-10-29T08:57:44.043Z,65.91
2022-10-29T09:00:27.935Z,66.12
2022-10-29T09:03:19.940Z,66.12
2022-10-29T09:05:28.795Z,65.52
2022-10-29T09:07:59.663Z,65.93
2022-10-29T09:10:33.474Z,65.50
2022-10-29T09:12:50.929Z,65.79
2022-10-29T09:15:11.457Z,65.62
2022-10-29T09:17:28.546Z,65.50
2022-10-29T09:20:10.964Z,65.31
2022-10-29T09:22:33.172Z,65.29
2022-10-29T09:24:47.249Z,65.20
2022-10-29T09:27:00.929Z,65.75
2022-10-29T09:29:17.796Z,65.12
2022-10-29T09:31:42.595Z,65.37
2022-10-29T09:33:48.645Z,65.70
2022-10-29T09:35:55.980Z,65.48
2022-10-29T09:38:09.086Z,65.03
2022-10-29T09:40:41.300Z,65.31
2022-10-29T09:42:47.034Z,65.21
2022-10-29T09:44:58.507Z,64.50
2022-10-29T09:47:37.137Z,65.04
2022-10-29T09:50:08.374Z,65.07
2022-10-29T09:52:21.296Z,65.11
2022-10-29T09:54:27.448Z,64.74
2022-10-29T09:56:29.450Z,64.58
2022-10-29T09:58:31.690Z,64.28
2022-10-29T10:00:34.626Z,64.41
2022-10-29T10:02:45.735Z,63.99
2022-10-29T10:04:51.344Z,63.77
2022-10-29T10:07:14.753Z,63.65
2022-10-29T10:09:16.766Z,63.52
2022-10-29T10:11:20.202Z,64.08
2022-10-29T10:13:31.458Z,62.39
2022-10-29T10:15:37.478Z,63.07
2022-10-29T10:18:01.804Z,62.62
2022-10-29T10:20:04.090Z,63.07
2022-10-29T10:22:16.565Z,62.94
2022-10-29T10:24:33.129Z,62.93
2022-10-29T10:27:50.683Z,62.21
2022-10-29T10:30:05.108Z,62.50
2022-10-29T10:32:08.996Z,63.02
2022-10-29T10:34:22.859Z,62.67
2022-10-29T10:36:26.778Z,62.18
2022-10-29T10:38:29.190Z,62.82
2022-10-29T10:40:31.846Z,62.86
2022-10-29T10:42:39.625Z,62.32
2022-10-29T10:44:53.232Z,62.52
2022-10-29T10:47:04.220Z,62.54
2022-10-29T10:49:13.722Z,62.29
2022-10-29T10:51:26.375Z,62.44
2022-10-29T10:53:28.412Z,62.58
2022-10-29T10:55:50.840Z,62.35
2022-10-29T10:58:15.665Z,62.14
2022-10-29T11:00:20.521Z,61.94
2022-10-29T11:02:49.091Z,62.89
2022-10-29T11:05:00.936Z,62.03
2022-10-29T11:07:11.703Z,62.05
2022-10-29T11:09:32.015Z,60.58
2022-10-29T11:11:44.316Z,61.57
2022-10-29T11:13:48.167Z,61.25
2022-10-29T11:16:02.501Z,61.32
2022-10-29T11:18:36.762Z,61.43
2022-10-29T11:20:40.329Z,61.26
2022-10-29T11:23:13.216Z,60.37
2022-10-29T11:25:21.451Z,61.36
2022-10-29T11:27:48.087Z,60.84
2022-10-29T11:30:02.677Z,60.56
2022-10-29T11:32:24.072Z,60.11
2022-10-29T11:34:57.314Z,60.24
2022-10-29T11:37:13.217Z,60.81
2022-10-29T11:39:27.633Z,61.21
2022-10-29T11:41:41.749Z,60.79
2022-10-29T11:43:43.768Z,60.71
2022-10-29T11:46:18.366Z,60.70
2022-10-29T11:48:33.681Z,60.19
2022-10-29T11:50:50.086Z,59.59
2022-10-29T11:53:00.948Z,59.81
2022-10-29T11:55:24.029Z,60.05
2022-10-29T11:57:31.997Z,60.11
2022-10-29T11:59:52.676Z,59.88
2022-10-29T12:02:27.034Z,59.61
2022-10-29T12:05:04.469Z,59.88
2022-10-29T12:07:27.960Z,60.09
2022-10-29T12:09:41.881Z,60.32
2022-10-29T12:11:59.048Z,60.22
2022-10-29T12:14:12.978Z,59.52
2022-10-29T12:16:57.892Z,59.40
2022-10-29T12:19:24.822Z,59.04
2022-10-29T12:21:26.941Z,59.49
2022-10-29T12:23:35.207Z,59.76
2022-10-29T12:26:15.469Z,59.80
2022-10-29T12:28:39.266Z,59.66
2022-10-29T12:30:54.538Z,59.92
2022-10-29T12:33:16.058Z,59.77
2022-10-29T12:35:28.943Z,59.32
2022-10-29T12:37:49.144Z,59.22
2022-10-29T12:39:58.030Z,59.40
2022-10-29T12:42:19.382Z,59.85
2022-10-29T12:44:45.157Z,59.50
2022-10-29T12:46:56.141Z,59.00
2022-10-29T12:48:58.079Z,59.57
2022-10-29T12:51:19.589Z,59.51
2022-10-29T12:54:02.553Z,59.58
2022-10-29T12:56:07.735Z,59.54
2022-10-29T12:58:48.965Z,59.38
2022-10-29T13:00:51.081Z,59.93
2022-10-29T13:02:54.714Z,59.74
2022-10-29T13:05:18.731Z,59.19
2022-10-29T13:09:26.748Z,59.38
2022-10-29T13:11:44.803Z,59.03
2022-10-29T13:13:55.043Z,59.46
2022-10-29T13:15:57.102Z,59.45
2022-10-29T13:18:07.296Z,59.38
2022-10-29T13:20:34.335Z,59.54
2022-10-29T13:22:47.893Z,59.85
2022-10-29T13:25:27.508Z,59.41
2022-10-29T13:27:34.589Z,59.49
2022-10-29T13:29:44.755Z,59.20
2022-10-29T13:31:48.869Z,59.44
2022-10-29T13:33:50.933Z,59.57
2022-10-29T13:35:55.045Z,59.04
2022-10-29T13:38:11.399Z,59.13
2022-10-29T13:40:22.394Z,59.38
2022-10-29T13:42:24.819Z,59.56
2022-10-29T13:44:28.250Z,59.99
2022-10-29T13:47:16.749Z,60.26
2022-10-29T13:49:24.686Z,59.72
2022-10-29T13:51:38.190Z,59.46
2022-10-29T13:53:57.353Z,59.55
2022-10-29T13:56:00.993Z,59.43
2022-10-29T13:58:27.702Z,59.65
2022-10-29T14:00:32.481Z,59.74
2022-10-29T14:02:39.667Z,59.53
2022-10-29T14:04:47.056Z,59.50
2022-10-29T14:06:52.768Z,59.59
2022-10-29T14:09:12.244Z,59.31
2022-10-29T14:11:25.266Z,59.34
2022-10-29T14:13:46.386Z,59.48
2022-10-29T14:16:03.524Z,59.89
2022-10-29T14:18:25.738Z,59.81
2022-10-29T14:20:33.975Z,59.36
2022-10-29T14:22:40.850Z,59.84
2022-10-29T14:24:42.949Z,59.37
2022-10-29T14:26:46.119Z,59.39
2022-10-29T14:28:48.228Z,59.33
2022-10-29T14:30:59.996Z,59.87
2022-10-29T14:33:16.644Z,59.42
2022-10-29T14:35:19.042Z,59.33
2022-10-29T14:37:41.039Z,59.08
2022-10-29T14:39:58.537Z,59.34
2022-10-29T14:42:02.266Z,59.29
2022-10-29T14:44:15.299Z,59.10
2022-10-29T14:46:25.482Z,59.08
2022-10-29T14:48:27.756Z,59.13
2022-10-29T14:50:31.431Z,59.11
2022-10-29T14:52:56.928Z,59.06
2022-10-29T14:55:03.347Z,59.37
2022-10-29T14:57:13.051Z,59.60
2022-10-29T14:59:29.212Z,59.96
2022-10-29T15:01:31.881Z,60.01
2022-10-29T15:03:35.389Z,60.03
2022-10-29T15:05:38.111Z,59.89
2022-10-29T15:07:40.256Z,59.94
2022-10-29T15:09:45.412Z,59.83
2022-10-29T15:11:57.756Z,59.74
2022-10-29T15:14:01.608Z,59.42
2022-10-29T15:16:19.058Z,60.50
2022-10-29T15:18:23.077Z,60.27
2022-10-29T15:20:27.969Z,60.27
2022-10-29T15:22:38.365Z,60.00
2022-10-29T15:24:46.332Z,60.21
2022-10-29T15:26:57.946Z,60.61
2022-10-29T15:29:00.177Z,60.27
2022-10-29T15:31:04.220Z,60.38
2022-10-29T15:33:12.839Z,59.88
2022-10-29T15:35:20.652Z,59.86
2022-10-29T15:37:33.227Z,59.87
2022-10-29T15:39:57.124Z,59.88
2022-10-29T15:42:00.351Z,59.88
2022-10-29T15:44:02.610Z,59.58
2022-10-29T15:46:04.993Z,60.03
2022-10-29T15:48:10.139Z,60.08
2022-10-29T15:50:18.649Z,60.47
2022-10-29T15:52:22.344Z,60.25
2022-10-29T15:54:24.643Z,60.63
2022-10-29T15:56:30.721Z,60.72
2022-10-29T15:58:33.523Z,59.98
2022-10-29T16:00:35.741Z,60.14
2022-10-29T16:02:37.706Z,60.35
2022-10-29T16:04:40.246Z,60.03
2022-10-29T16:06:42.287Z,59.97
2022-10-29T16:08:49.553Z,61.08
2022-10-29T16:10:55.358Z,60.89
2022-10-29T16:12:58.707Z,60.76
2022-10-29T16:15:00.807Z,61.20
2022-10-29T16:17:03.008Z,61.23
2022-10-29T16:19:05.151Z,61.09
2022-10-29T16:21:07.729Z,60.68
2022-10-29T16:23:13.891Z,60.72
2022-10-29T16:25:25.219Z,60.29
2022-10-29T16:27:27.487Z,60.91
2022-10-29T16:29:29.512Z,60.16
2022-10-29T16:31:31.585Z,60.64
2022-10-29T16:33:33.717Z,60.28
2022-10-29T16:35:35.830Z,60.72
2022-10-29T16:37:37.883Z,60.76
2022-10-29T16:39:40.422Z,60.54
2022-10-29T16:42:07.191Z,60.64
2022-10-29T16:44:09.272Z,61.04
2022-10-29T16:46:12.536Z,61.18
2022-10-29T16:48:14.602Z,61.39
2022-10-29T16:50:28.707Z,62.31
2022-10-29T16:52:32.822Z,61.74
2022-10-29T16:54:35.018Z,61.44
2022-10-29T16:56:37.053Z,61.18
2022-10-29T16:58:39.125Z,61.52
2022-10-29T17:00:41.321Z,60.80
2022-10-29T17:02:45.725Z,60.83
2022-10-29T17:04:47.910Z,61.23
2022-10-29T17:06:49.925Z,60.93
2022-10-29T17:08:52.235Z,60.60
2022-10-29T17:10:58.656Z,60.77
2022-10-29T17:13:03.542Z,60.31
2022-10-29T17:15:06.708Z,60.35
2022-10-29T17:17:08.584Z,60.26
2022-10-29T17:19:10.415Z,60.26
2022-10-29T17:21:12.357Z,60.19
2022-10-29T17:23:14.261Z,60.48
2022-10-29T17:25:16.341Z,60.73
2022-10-29T17:27:21.303Z,60.58
2022-10-29T17:29:26.460Z,60.96
2022-10-29T17:31:29.084Z,61.34
2022-10-29T17:33:31.139Z,61.16
2022-10-29T17:35:33.489Z,61.09
2022-10-29T17:38:05.688Z,61.43
2022-10-29T17:40:08.622Z,60.89
2022-10-29T17:42:10.898Z,61.56
2022-10-29T17:44:13.383Z,61.45
2022-10-29T17:46:18.247Z,61.45
2022-10-29T17:48:24.037Z,61.18
2022-10-29T17:50:27.297Z,61.27
2022-10-29T17:52:29.745Z,61.26
2022-10-29T17:54:34.953Z,61.65
2022-10-29T17:56:37.345Z,61.78
2022-10-29T17:58:39.860Z,61.69
2022-10-29T18:00:42.199Z,61.85
2022-10-29T18:02:49.295Z,61.75
2022-10-29T18:04:51.462Z,61.56
2022-10-29T18:06:56.516Z,62.25
2022-10-29T18:09:00.577Z,61.83
2022-10-29T18:11:22.422Z,61.36
2022-10-29T18:13:24.561Z,61.42
2022-10-29T18:15:26.813Z,61.46
2022-10-29T18:17:29.160Z,62.12
2022-10-29T18:19:31.494Z,61.92
2022-10-29T18:21:33.750Z,61.79
2022-10-29T18:23:35.987Z,60.89
2022-10-29T18:25:38.283Z,61.03
2022-10-29T18:27:41.019Z,61.88
2022-10-29T18:29:43.049Z,61.74
2022-10-29T18:31:46.890Z,61.97
2022-10-29T18:33:48.942Z,61.32
2022-10-29T18:35:54.849Z,61.87
2022-10-29T18:37:57.188Z,61.96
2022-10-29T18:39:59.499Z,61.51
2022-10-29T18:42:01.747Z,61.97
2022-10-29T18:44:03.898Z,61.98
2022-10-29T18:46:07.274Z,61.87
2022-10-29T18:48:09.195Z,61.94
2022-10-29T18:50:11.036Z,61.12
2022-10-29T18:52:38.183Z,61.08
2022-10-29T18:54:41.196Z,61.31
2022-10-29T18:56:46.205Z,61.46
2022-10-29T18:58:49.291Z,61.68
2022-10-29T19:00:51.641Z,62.19
2022-10-29T19:02:53.927Z,62.15
2022-10-29T19:04:56.002Z,62.51
2022-10-29T19:06:57.767Z,62.74
2022-10-29T19:09:01.766Z,62.43
2022-10-29T19:11:05.557Z,62.46
2022-10-29T19:13:07.891Z,62.70
2022-10-29T19:15:10.092Z,62.73
2022-10-29T19:17:11.750Z,62.56
2022-10-29T19:19:16.049Z,62.72
2022-10-29T19:21:20.225Z,62.69
2022-10-29T19:23:21.911Z,62.52
2022-10-29T19:25:24.868Z,62.92
2022-10-29T19:27:26.688Z,63.30
2022-10-29T19:29:28.402Z,63.06
2022-10-29T19:31:31.811Z,63.02
2022-10-29T19:33:34.168Z,63.00
2022-10-29T19:35:35.994Z,63.15
2022-10-29T19:37:38.986Z,63.76
2022-10-29T19:39:40.714Z,63.51
2022-10-29T19:41:42.413Z,63.73
2022-10-29T19:43:44.686Z,63.36
2022-10-29T19:45:46.352Z,63.12
2022-10-29T19:47:48.677Z,63.00
2022-10-29T19:53:51.656Z,62.74
2022-10-29T19:55:53.992Z,63.18
2022-10-29T19:57:56.143Z,63.07
2022-10-29T19:59:57.804Z,62.71
2022-10-29T20:01:59.679Z,63.17
2022-10-29T20:04:01.559Z,63.42
2022-10-29T20:06:03.672Z,63.55
2022-10-29T20:08:07.955Z,63.64
2022-10-29T20:10:11.947Z,64.17
2022-10-29T20:12:13.708Z,63.82
2022-10-29T20:14:15.954Z,63.66
2022-10-29T20:16:19.948Z,63.35
2022-10-29T20:18:22.254Z,63.61
2022-10-29T20:20:25.520Z,63.56
2022-10-29T20:22:27.239Z,63.53
2022-10-29T20:24:29.019Z,64.10
2022-10-29T20:26:31.269Z,63.34
2022-10-29T20:28:33.781Z,63.47
2022-10-29T20:30:35.928Z,63.77
2022-10-29T20:32:38.061Z,63.85
2022-10-29T20:34:39.785Z,63.89
2022-10-29T20:36:46.253Z,64.38
2022-10-29T20:38:49.905Z,63.87
2022-10-29T20:40:52.598Z,63.52
2022-10-29T20:42:54.460Z,63.54
2022-10-29T20:44:56.618Z,63.34
2022-10-29T20:46:58.525Z,63.34
2022-10-29T20:49:00.734Z,63.75
2022-10-29T20:51:03.100Z,63.98
2022-10-29T20:53:04.912Z,64.45
2022-10-29T20:55:07.529Z,64.36
2022-10-29T20:57:09.400Z,64.53
2022-10-29T20:59:11.336Z,64.71
2022-10-29T21:01:15.978Z,64.36
2022-10-29T21:03:18.561Z,64.36
2022-10-29T21:05:20.367Z,64.21
2022-10-29T21:07:22.321Z,64.58
2022-10-29T21:09:30.579Z,64.72
2022-10-29T21:11:32.927Z,64.71
2022-10-29T21:13:36.005Z,64.80
2022-10-29T21:15:38.152Z,64.92
2022-10-29T21:17:40.298Z,64.80
2022-10-29T21:19:43.079Z,65.08
2022-10-29T21:21:45.272Z,64.83
2022-10-29T21:23:47.373Z,64.90
2022-10-29T21:25:55.455Z,64.62
2022-10-29T21:27:57.847Z,64.66
2022-10-29T21:30:00.746Z,64.55
2022-10-29T21:32:02.853Z,65.03
2022-10-29T21:34:05.044Z,65.12
2022-10-29T21:36:07.601Z,65.29
2022-10-29T21:38:09.702Z,65.09
2022-10-29T21:40:12.519Z,65.02
2022-10-29T21:42:16.984Z,64.79
2022-10-29T21:44:19.194Z,64.92
2022-10-29T21:46:21.240Z,65.44
2022-10-29T21:48:26.840Z,65.36
2022-10-29T21:50:28.735Z,65.45
2022-10-29T21:52:30.771Z,64.55
2022-10-29T21:54:32.895Z,64.74
2022-10-29T21:56:34.743Z,64.58
2022-10-29T21:58:37.162Z,64.27
2022-10-29T22:00:39.575Z,64.36
2022-10-29T22:02:41.784Z,64.17
2022-10-29T22:04:43.884Z,64.45
2022-10-29T22:06:46.887Z,64.09
2022-10-29T22:08:54.329Z,64.75
2022-10-29T22:11:00.459Z,64.07
2022-10-29T22:13:02.498Z,63.64
2022-10-29T22:15:05.302Z,63.93
2022-10-29T22:17:07.581Z,63.95
2022-10-29T22:19:11.367Z,64.20
2022-10-29T22:21:25.507Z,64.69
2022-10-29T22:23:27.709Z,64.31
2022-10-29T22:25:29.781Z,63.73
2022-10-29T22:27:31.894Z,64.19
2022-10-29T22:29:34.460Z,64.96
2022-10-29T22:31:36.891Z,64.79
2022-10-29T22:33:39.358Z,64.64
2022-10-29T22:35:44.188Z,64.53
2022-10-29T22:37:46.504Z,64.29
2022-10-29T22:39:48.826Z,64.51
2022-10-29T22:41:50.849Z,64.54
2022-10-29T22:43:53.298Z,64.07
2022-10-29T22:45:57.690Z,63.67
2022-10-29T22:47:59.916Z,64.42
2022-10-29T22:50:02.297Z,63.97
2022-10-29T22:52:04.995Z,64.12
2022-10-29T22:54:07.433Z,64.01
2022-10-29T22:56:21.848Z,64.51
2022-10-29T22:58:24.962Z,63.89
2022-10-29T23:00:27.346Z,63.97
2022-10-29T23:02:29.672Z,63.93
2022-10-29T23:04:31.894Z,63.93
2022-10-29T23:06:33.855Z,64.50
2022-10-29T23:08:36.793Z,64.26
2022-10-29T23:14:38.582Z,63.98
2022-10-29T23:16:40.531Z,63.90
2022-10-29T23:18:43.281Z,64.10
2022-10-29T23:20:45.824Z,64.28
2022-10-29T23:22:48.004Z,64.40
2022-10-29T23:24:50.151Z,64.89
2022-10-29T23:26:52.136Z,65.12
2022-10-29T23:28:54.158Z,64.40
2022-10-29T23:30:57.871Z,64.11
2022-10-29T23:33:00.896Z,64.06
2022-10-29T23:35:03.028Z,64.09
2022-10-29T23:37:08.770Z,64.68
2022-10-29T23:39:12.653Z,65.07
2022-10-29T23:41:14.872Z,64.75
2022-10-29T23:43:17.386Z,64.85
2022-10-29T23:45:19.301Z,64.90
2022-10-29T23:47:21.350Z,65.29
2022-10-29T23:49:23.445Z,64.76
2022-10-29T23:53:44.575Z,65.32
2022-10-29T23:55:49.507Z,65.54
2022-10-29T23:57:51.540Z,65.58
2022-10-29T23:59:53.828Z,65.64
